Observations for Trim Market St
| Time | AQI | Temp °C | Hum % | Pres Pa | CO μg/m³ | H₂S μg/m³ | NO μg/m³ | NO₂ μg/m³ | O₃ μg/m³ | SO₂ μg/m³ | PM1 μg/m³ | PM2.5 μg/m³ | PM10 μg/m³ |
|---|---|---|---|---|---|---|---|---|---|---|---|---|---|
| Tuesday 25 August 2026 | |||||||||||||
| 08:58 | 2 | 22.4 | 54 | 57,467 | 0 | 0 | 1.27 | 7.56 | 59.65 | 0 | 0.71 | 3.28 | 3.93 |
| 08:51 | 2 | 23 | 54 | 56,694 | 0.02 | 0 | 1.4 | 6.1 | 54.99 | 0 | 1.43 | 6.35 | 8.25 |
| 08:50 | 2 | 23.1 | 54 | 56,625 | 0.06 | 0 | 1.42 | 5.24 | 55.25 | 0 | 0.71 | 3.29 | 3.92 |
| 08:49 | 2 | 23.2 | 54 | 56,601 | 0.09 | 0 | 1.49 | 6.05 | 54.99 | 0 | 1.43 | 3.29 | 3.92 |
| 08:48 | 2 | 23.2 | 54 | 56,553 | 0.16 | 0 | 1.5 | 7.11 | 52.04 | 0 | 0.71 | 3.8 | 5.37 |
| 08:47 | 2 | 23.3 | 54 | 56,437 | 0.13 | 0 | 1.54 | 6.76 | 51.78 | 0 | 2.14 | 4.3 | 5.37 |
| 08:46 | 2 | 23.4 | 55 | 56,381 | 0.15 | 0 | 1.62 | 6.09 | 51.81 | 0 | 1.43 | 3.78 | 5.37 |
| 08:45 | 2 | 23.4 | 55 | 56,391 | 0.18 | 0 | 1.66 | 4.53 | 48.49 | 0 | 2.14 | 4.78 | 6.1 |
| 08:44 | 2 | 23.5 | 55 | 56,525 | 0.19 | 0 | 1.58 | 5.71 | 52.11 | 0 | 1.43 | 4.76 | 6.1 |
| 08:43 | 2 | 23.6 | 56 | 56,661 | 0.22 | 0 | 1.6 | 5.59 | 47.45 | 0 | 0.71 | 3.73 | 7.53 |
| 08:42 | 2 | 23.5 | 56 | 56,836 | 0.23 | 0 | 1.62 | 5.1 | 46.94 | 0 | 0.71 | 3.21 | 3.98 |
| 08:41 | 2 | 23.5 | 56 | 57,009 | 0.25 | 0 | 1.59 | 6.96 | 45.48 | 0 | 0.71 | 2.68 | 3.28 |
| 08:40 | 2 | 23.5 | 57 | 57,127 | 0.26 | 0 | 1.63 | 6.45 | 45.75 | 0 | 2.14 | 4.68 | 6.12 |
| 08:39 | 2 | 23.4 | 57 | 57,322 | 0.28 | 0 | 1.97 | 6.57 | 46.02 | 0 | 1.43 | 4.15 | 7.53 |
| 08:38 | 2 | 23.3 | 58 | 57,508 | 0.28 | 0 | 2.06 | 7.12 | 46.03 | 0 | 1.43 | 4.13 | 6.13 |
| 08:34 | 2 | 22.9 | 59 | 57,642 | 0.32 | 0 | 1.71 | 7.45 | 43.2 | 0 | 0.71 | 3.56 | 6.84 |
| 08:29 | 2 | 22.6 | 61 | 57,515 | 0.39 | 0 | 2.79 | 8.61 | 37.1 | 0 | 0.71 | 3.98 | 6.17 |
| 08:26 | 2 | 22.4 | 62 | 57,388 | 0.39 | 0 | 2.02 | 10.13 | 34.95 | 0 | 0.71 | 2.92 | 4.16 |
| 08:24 | 2 | 22.2 | 63 | 57,288 | 0.39 | 0 | 1.68 | 11.54 | 35.45 | 0 | 0.71 | 3.39 | 4.85 |
| 08:21 | 2 | 21.8 | 64 | 57,181 | 0.35 | 0 | 2.7 | 11.08 | 36.15 | 0 | 0.71 | 3.84 | 5.54 |